Milford, Kansas
Current Conditions -  °F | °C
As of 10:58 PM on Wednesday 26 Nov 2014 (Local Time) from KFRI Reporting Station
Clear Clear  
Wind Chill: 26°   Ceiling: Unl
Heat Index: 26°   Visibility: 10mi
Dew Point: 19°   Wind: 3mph
Humidity: 73%   Direction: NA
Pressure: 30.47"   Gusts: NA
Location:  39.17°N, 96.91°W
Report Text: KFRI 270458Z AUTO VRB03KT 10SM CLR M03/M07 A3047 RMK AO2 SLP327 T10311073
Loading
Personal Weather Stations






























Interactive Weather Map New forecast layout! Learn more

10-Day Weather Forecast

Advertisements
Track Severe Weather on mobile